Time;durP1;ratioP1;P1;durP2;ratioP2;P2;SDS_P1;SDS_P2;PMS_P1;PMS_P2;Temp;Humidity;BMP_temperature;BMP_pressure;BME280_temperature;BME280_humidity;BME280_pressure;Samples;Min_cycle;Max_cycle;Signal;HPM_P1;HPM_P2
2021/08/05 00:00:53;;;;;;;13.30;10.43;;;;;;;27.17;72.98;100177.81;5012793;28;20459;-67
2021/08/05 00:03:18;;;;;;;14.35;10.30;;;;;;;27.29;72.79;100187.97;5012995;28;20053;-67
2021/08/05 00:05:44;;;;;;;12.52;10.60;;;;;;;27.43;72.51;100186.63;5012774;28;20041;-67
2021/08/05 00:08:09;;;;;;;11.93;10.55;;;;;;;27.48;72.18;100195.25;5012600;28;20412;-67
2021/08/05 00:10:35;;;;;;;15.57;10.70;;;;;;;27.39;72.67;100184.94;5012776;28;20065;-67
2021/08/05 00:13:00;;;;;;;12.23;10.70;;;;;;;27.27;73.31;100186.28;5012483;28;20088;-67
2021/08/05 00:15:26;;;;;;;16.00;10.43;;;;;;;27.14;73.93;100188.50;5012729;28;20096;-67
2021/08/05 00:17:51;;;;;;;14.65;11.45;;;;;;;27.17;73.82;100185.75;5012908;28;20572;-67
2021/08/05 00:20:17;;;;;;;12.23;10.27;;;;;;;27.13;74.04;100184.16;5012538;28;20037;-67
2021/08/05 00:22:42;;;;;;;11.23;10.18;;;;;;;27.02;74.57;100184.53;5012782;28;20028;-67
2021/08/05 00:25:08;;;;;;;12.05;10.60;;;;;;;27.04;74.58;100190.66;5012405;28;20036;-69
2021/08/05 00:27:34;;;;;;;12.35;11.00;;;;;;;26.94;75.05;100178.63;5012572;28;20025;-67
2021/08/05 00:29:59;;;;;;;14.05;11.15;;;;;;;26.93;75.16;100190.16;5012601;28;20050;-67
2021/08/05 00:32:25;;;;;;;17.90;12.05;;;;;;;26.74;75.49;100155.50;5012162;28;20133;-67
2021/08/05 00:34:50;;;;;;;15.50;10.80;;;;;;;26.59;75.56;100141.00;5012428;28;20072;-67
2021/08/05 00:37:16;;;;;;;12.90;10.98;;;;;;;26.76;76.73;100191.59;5012525;28;20030;-67
2021/08/05 00:39:41;;;;;;;12.40;11.20;;;;;;;26.63;76.79;100175.25;5011984;28;20033;-67
2021/08/05 00:42:07;;;;;;;15.10;11.95;;;;;;;26.57;77.49;100188.72;5012272;28;20033;-67
2021/08/05 00:44:33;;;;;;;13.73;11.45;;;;;;;26.57;76.64;100174.63;5012348;28;20767;-67
2021/08/05 00:46:59;;;;;;;17.27;11.82;;;;;;;26.58;77.37;100187.78;5012371;28;20054;-67
2021/08/05 00:49:24;;;;;;;13.57;12.15;;;;;;;26.42;78.34;100191.88;5012129;28;20026;-67
2021/08/05 00:51:49;;;;;;;13.65;12.30;;;;;;;26.37;78.52;100184.09;5012351;28;20025;-67
2021/08/05 00:54:16;;;;;;;13.05;11.68;;;;;;;26.35;78.66;100179.78;5012039;28;20071;-67
2021/08/05 00:56:41;;;;;;;13.45;11.65;;;;;;;26.49;78.17;100185.44;5011912;28;20041;-67
2021/08/05 00:59:07;;;;;;;17.02;12.60;;;;;;;26.44;78.23;100179.44;5011843;28;20037;-65
2021/08/05 01:01:39;;;;;;;12.63;11.43;;;;;;;26.22;78.53;100153.72;5012378;28;20022;-67
2021/08/05 01:04:08;;;;;;;15.32;12.45;;;;;;;26.45;78.18;100184.69;5012004;28;20029;-67
2021/08/05 01:06:45;;;;;;;13.07;11.60;;;;;;;26.37;78.48;100180.56;5012092;28;20022;-65
2021/08/05 01:09:49;;;;;;;12.98;11.63;;;;;;;26.38;78.77;100179.66;5013119;28;20492;-70
2021/08/05 01:12:33;;;;;;;16.30;12.07;;;;;;;26.31;78.83;100168.41;4938569;29;20155;-67
2021/08/05 01:15:10;;;;;;;13.55;11.73;;;;;;;26.40;78.26;100161.94;4922469;29;20032;-66
2021/08/05 01:17:39;;;;;;;13.10;11.77;;;;;;;26.41;78.38;100163.69;4938655;29;20063;-71
2021/08/05 01:20:09;;;;;;;15.27;11.05;;;;;;;26.49;78.00;100172.22;4938833;29;20039;-67
2021/08/05 01:23:07;;;;;;;13.15;11.80;;;;;;;26.31;78.73;100168.41;4938434;29;20039;-67
2021/08/05 01:25:47;;;;;;;12.40;11.25;;;;;;;26.32;78.64;100176.28;4938437;29;20215;-66
2021/08/05 01:28:16;;;;;;;13.65;12.07;;;;;;;26.16;78.68;100151.25;4938762;29;20046;-67
2021/08/05 01:30:44;;;;;;;13.98;12.52;;;;;;;25.99;79.28;100139.44;4938402;29;20130;-67
2021/08/05 01:33:11;;;;;;;15.40;12.48;;;;;;;25.88;79.47;100124.81;4938379;29;20094;-67
2021/08/05 01:35:39;;;;;;;13.32;11.88;;;;;;;25.99;80.10;100165.00;4938516;29;20486;-67
2021/08/05 01:38:06;;;;;;;13.15;11.75;;;;;;;26.00;80.13;100159.66;4938255;29;20114;-66
2021/08/05 01:40:32;;;;;;;13.52;12.23;;;;;;;25.86;80.35;100159.25;4938444;29;20479;-67
2021/08/05 01:42:58;;;;;;;13.32;11.93;;;;;;;25.92;80.75;100166.97;4938694;29;20039;-67
2021/08/05 01:45:25;;;;;;;14.30;11.73;;;;;;;26.03;80.07;100158.69;4938457;29;20031;-67
2021/08/05 01:47:51;;;;;;;14.52;12.88;;;;;;;25.96;80.30;100162.47;4939105;28;20032;-65
2021/08/05 01:50:17;;;;;;;19.27;12.60;;;;;;;25.90;81.21;100163.50;5018202;28;20030;-67
2021/08/05 01:52:45;;;;;;;15.15;12.52;;;;;;;25.90;80.97;100154.72;5018059;28;20065;-66
2021/08/05 01:55:14;;;;;;;13.82;12.38;;;;;;;26.00;80.66;100164.94;5018340;28;20033;-69
2021/08/05 01:57:40;;;;;;;13.63;12.10;;;;;;;26.17;79.63;100155.66;5018276;28;20033;-67
2021/08/05 02:00:07;;;;;;;13.90;12.45;;;;;;;26.15;79.39;100162.75;5018167;28;20026;-67
2021/08/05 02:02:33;;;;;;;13.35;12.05;;;;;;;26.08;79.43;100159.47;5018009;28;20031;-67
2021/08/05 02:05:31;;;;;;;13.90;12.52;;;;;;;25.96;80.00;100155.38;5017883;28;20107;-67
2021/08/05 02:08:06;;;;;;;13.75;12.35;;;;;;;26.03;79.59;100148.09;4938275;29;20063;-66
2021/08/05 02:10:40;;;;;;;14.00;12.63;;;;;;;26.03;79.80;100156.03;4938283;29;20047;-67
2021/08/05 02:13:05;;;;;;;14.23;12.73;;;;;;;25.88;79.96;100154.75;4938068;29;20065;-66
2021/08/05 02:15:35;;;;;;;14.85;13.35;;;;;;;25.61;81.11;100154.72;4938039;29;20506;-67
2021/08/05 02:18:02;;;;;;;15.38;12.57;;;;;;;25.57;81.18;100157.50;4938008;29;20051;-67
2021/08/05 02:20:28;;;;;;;13.73;12.32;;;;;;;25.45;82.30;100164.88;4937109;29;20126;-67
2021/08/05 02:22:54;;;;;;;14.35;12.80;;;;;;;25.35;81.74;100129.88;4934650;29;20554;-67
2021/08/05 02:25:19;;;;;;;14.15;12.73;;;;;;;25.41;81.99;100160.59;4935178;29;20070;-67
2021/08/05 02:27:46;;;;;;;17.35;13.30;;;;;;;25.40;82.39;100176.50;4935222;29;20032;-67
2021/08/05 02:30:13;;;;;;;15.43;13.88;;;;;;;25.28;82.96;100170.59;4934885;29;20028;-67
2021/08/05 02:32:40;;;;;;;20.98;14.52;;;;;;;25.41;82.25;100171.19;4935068;29;20083;-67
2021/08/05 02:35:08;;;;;;;16.60;12.95;;;;;;;25.37;82.37;100174.78;4934979;29;20075;-66
2021/08/05 02:37:35;;;;;;;15.98;13.35;;;;;;;25.43;82.34;100171.97;4934917;29;20044;-66
2021/08/05 02:40:02;;;;;;;18.88;14.30;;;;;;;25.48;81.94;100166.56;4934685;29;20035;-67
2021/08/05 02:42:28;;;;;;;15.43;13.82;;;;;;;25.29;82.31;100143.28;4934821;29;20062;-66
2021/08/05 02:44:55;;;;;;;16.63;14.65;;;;;;;25.60;81.82;100173.28;4993463;28;20041;-67
2021/08/05 02:47:21;;;;;;;16.40;14.60;;;;;;;25.50;82.52;100162.09;5014406;28;20030;-67
2021/08/05 02:49:49;;;;;;;15.80;14.15;;;;;;;25.36;82.29;100114.91;5014217;28;20377;-67
2021/08/05 02:52:14;;;;;;;19.85;13.95;;;;;;;25.81;81.01;100169.09;5014279;28;20034;-67
2021/08/05 02:54:43;;;;;;;15.95;13.80;;;;;;;25.71;81.48;100172.91;5013058;28;20495;-67
2021/08/05 02:57:10;;;;;;;16.75;14.43;;;;;;;25.56;81.71;100138.13;5014126;28;20034;-67
2021/08/05 02:59:35;;;;;;;17.73;14.18;;;;;;;25.71;81.82;100167.63;4995723;28;20046;-67
2021/08/05 03:02:02;;;;;;;15.98;14.15;;;;;;;25.63;82.21;100168.75;5014175;28;20034;-66
2021/08/05 03:04:34;;;;;;;15.55;13.95;;;;;;;25.52;83.15;100173.47;4995936;28;20099;-66
2021/08/05 03:07:01;;;;;;;15.27;13.80;;;;;;;25.35;82.96;100156.31;5013978;28;20092;-69
2021/08/05 03:09:27;;;;;;;18.02;14.50;;;;;;;25.28;82.85;100146.84;5013818;28;20032;-67
2021/08/05 03:11:52;;;;;;;17.35;15.20;;;;;;;25.41;82.97;100181.75;5013787;28;20463;-67
2021/08/05 03:14:18;;;;;;;17.90;15.25;;;;;;;25.27;83.75;100178.59;5013793;28;20026;-67
2021/08/05 03:16:43;;;;;;;16.10;14.20;;;;;;;25.21;84.03;100184.94;5013615;28;20033;-67
2021/08/05 03:19:09;;;;;;;16.92;14.23;;;;;;;25.05;84.06;100158.09;5013813;28;20026;-67
2021/08/05 03:21:34;;;;;;;16.52;14.32;;;;;;;25.10;83.55;100158.81;4995362;28;20088;-67
2021/08/05 03:24:00;;;;;;;16.27;14.52;;;;;;;25.31;83.70;100186.41;5013613;28;20440;-66
2021/08/05 03:26:25;;;;;;;22.38;15.07;;;;;;;25.22;83.91;100175.22;5013331;28;20030;-67
2021/08/05 03:28:51;;;;;;;17.20;15.48;;;;;;;25.14;84.19;100178.94;5013621;28;20041;-70
2021/08/05 03:31:17;;;;;;;17.83;15.25;;;;;;;24.96;84.29;100155.69;5013507;28;20054;-67
2021/08/05 03:33:42;;;;;;;17.33;15.50;;;;;;;25.09;84.92;100187.91;5013331;28;20026;-70
2021/08/05 03:36:07;;;;;;;17.60;15.73;;;;;;;24.79;85.59;100151.72;5013325;28;20400;-67
2021/08/05 03:38:33;;;;;;;18.05;15.25;;;;;;;24.79;85.92;100153.53;5013238;28;20484;-67
2021/08/05 03:41:01;;;;;;;18.73;15.20;;;;;;;24.82;87.38;100187.75;5013039;28;20030;-67
2021/08/05 03:43:26;;;;;;;17.88;15.52;;;;;;;24.90;86.98;100190.16;5013273;28;20053;-67
2021/08/05 03:45:52;;;;;;;17.38;15.50;;;;;;;24.84;87.51;100196.50;5013137;28;20030;-66
2021/08/05 03:48:17;;;;;;;19.65;16.13;;;;;;;24.79;88.35;100187.84;5013470;28;20072;-67
2021/08/05 03:50:43;;;;;;;17.30;15.10;;;;;;;24.77;88.38;100187.00;5013215;28;20034;-67
2021/08/05 03:53:08;;;;;;;17.95;16.15;;;;;;;24.92;87.83;100188.38;5013188;28;20026;-67
2021/08/05 03:55:33;;;;;;;18.98;16.65;;;;;;;24.83;88.42;100186.84;5013076;28;20026;-67
2021/08/05 03:57:59;;;;;;;19.00;17.05;;;;;;;24.90;88.13;100195.44;5012776;28;20030;-67
2021/08/05 04:00:24;;;;;;;21.77;16.08;;;;;;;24.97;87.65;100197.91;5013304;28;20030;-67
2021/08/05 04:02:50;;;;;;;18.83;16.63;;;;;;;24.96;88.03;100198.81;5013077;28;20466;-66
2021/08/05 04:05:15;;;;;;;20.77;16.63;;;;;;;25.02;88.35;100201.28;4994414;28;20046;-66
2021/08/05 04:07:41;;;;;;;25.50;18.33;;;;;;;25.03;87.93;100200.38;5012765;28;20052;-66
2021/08/05 04:10:07;;;;;;;20.13;16.88;;;;;;;24.81;88.59;100172.81;5012698;28;20030;-71
2021/08/05 04:12:33;;;;;;;21.20;16.55;;;;;;;24.85;89.02;100188.53;5012636;28;20030;-67
2021/08/05 04:14:59;;;;;;;19.83;17.70;;;;;;;24.99;88.95;100200.50;5012535;28;20033;-70
2021/08/05 04:17:24;;;;;;;20.08;18.15;;;;;;;25.13;88.19;100198.34;5012428;28;20046;-67
2021/08/05 04:19:49;;;;;;;20.65;18.40;;;;;;;25.12;88.78;100198.38;5012897;28;20030;-67
2021/08/05 04:22:15;;;;;;;19.02;16.75;;;;;;;25.23;87.95;100190.16;5012635;28;20036;-67
2021/08/05 04:24:40;;;;;;;20.73;17.40;;;;;;;25.33;87.72;100188.97;5012590;28;20105;-67
2021/08/05 04:27:06;;;;;;;21.63;17.67;;;;;;;24.94;87.29;100139.88;5012338;28;20092;-66
2021/08/05 04:29:32;;;;;;;25.67;19.15;;;;;;;25.19;87.94;100192.03;5012398;28;20030;-65
2021/08/05 04:31:58;;;;;;;21.45;18.20;;;;;;;25.12;87.87;100164.94;5012325;28;20060;-66
2021/08/05 04:34:23;;;;;;;24.65;18.88;;;;;;;25.40;87.27;100176.50;5012357;28;20021;-67
2021/08/05 04:36:48;;;;;;;23.15;18.38;;;;;;;25.34;87.22;100181.00;5012231;28;20034;-67
2021/08/05 04:39:14;;;;;;;25.83;18.25;;;;;;;25.51;86.59;100183.19;5012335;28;20025;-66
2021/08/05 04:41:39;;;;;;;21.85;19.38;;;;;;;25.37;86.57;100153.66;5012150;28;20026;-67
2021/08/05 04:44:05;;;;;;;26.27;21.60;;;;;;;25.57;86.60;100174.22;5011732;28;20037;-67
2021/08/05 04:46:30;;;;;;;24.75;19.15;;;;;;;25.43;86.62;100168.47;5012302;28;20523;-67
2021/08/05 04:48:56;;;;;;;24.80;20.25;;;;;;;25.37;87.27;100158.09;5012111;28;20029;-67
2021/08/05 04:51:21;;;;;;;25.73;21.23;;;;;;;25.51;86.69;100171.78;5012401;28;20036;-69
2021/08/05 04:53:47;;;;;;;24.70;21.40;;;;;;;25.65;86.41;100181.91;5012116;28;20022;-67
2021/08/05 04:56:12;;;;;;;25.10;21.63;;;;;;;25.68;86.43;100184.47;5012014;28;20449;-67
2021/08/05 04:58:38;;;;;;;24.85;21.98;;;;;;;25.58;86.80;100183.88;5012179;28;20029;-67
2021/08/05 05:01:03;;;;;;;28.48;24.33;;;;;;;25.46;87.19;100171.00;5012226;28;20034;-67
2021/08/05 05:03:29;;;;;;;34.60;26.80;;;;;;;25.39;88.06;100178.28;5011983;28;20030;-67
2021/08/05 05:05:57;;;;;;;34.60;25.38;;;;;;;25.41;87.73;100172.94;5012029;28;20038;-67
2021/08/05 05:08:24;;;;;;;30.98;27.90;;;;;;;25.47;87.89;100171.00;5011859;28;20104;-66
2021/08/05 05:10:52;;;;;;;33.47;29.83;;;;;;;25.58;88.43;100178.59;5011723;28;20061;-67
2021/08/05 05:13:18;;;;;;;32.22;28.52;;;;;;;25.51;88.19;100177.06;5011773;28;20492;-66
2021/08/05 05:15:44;;;;;;;33.92;29.98;;;;;;;25.62;86.98;100174.06;5012000;28;20029;-67
2021/08/05 05:18:10;;;;;;;34.35;30.38;;;;;;;25.62;87.78;100177.59;5011695;28;20030;-67
2021/08/05 05:20:36;;;;;;;36.75;29.83;;;;;;;25.71;88.11;100179.09;5011781;28;20109;-66
2021/08/05 05:23:02;;;;;;;35.70;30.83;;;;;;;25.81;86.60;100179.69;5011582;28;20080;-69
2021/08/05 05:25:28;;;;;;;34.75;29.55;;;;;;;25.86;86.12;100172.47;5011687;28;20026;-67
2021/08/05 05:27:54;;;;;;;31.80;28.45;;;;;;;25.88;85.52;100149.47;5012099;28;20038;-67
2021/08/05 05:30:20;;;;;;;32.72;28.52;;;;;;;26.14;86.17;100171.59;5011759;28;20100;-65
2021/08/05 05:32:46;;;;;;;33.53;29.92;;;;;;;26.20;85.11;100171.41;5011853;28;20025;-69
2021/08/05 05:35:16;;;;;;;33.83;28.67;;;;;;;25.87;86.08;100166.28;5011611;28;20540;-65
2021/08/05 05:37:44;;;;;;;34.33;28.95;;;;;;;25.95;86.65;100164.22;5011843;28;20030;-65
2021/08/05 05:40:10;;;;;;;34.97;29.15;;;;;;;26.08;84.86;100155.94;5011848;28;20107;-67
2021/08/05 05:42:36;;;;;;;32.63;27.88;;;;;;;26.12;84.18;100131.09;5011706;28;20022;-67
2021/08/05 05:45:02;;;;;;;28.70;25.63;;;;;;;26.31;83.23;100163.97;5011748;28;20048;-69
2021/08/05 05:47:28;;;;;;;32.88;25.77;;;;;;;26.52;82.00;100165.94;5011695;28;20026;-67
2021/08/05 05:49:54;;;;;;;33.90;25.80;;;;;;;26.72;80.61;100162.63;5011463;28;20100;-67
2021/08/05 05:52:20;;;;;;;29.35;24.60;;;;;;;26.72;80.67;100157.34;5011462;28;20030;-67
2021/08/05 05:54:46;;;;;;;28.30;25.38;;;;;;;26.44;80.41;100126.50;5011686;28;20120;-67
2021/08/05 05:57:14;;;;;;;29.50;21.85;;;;;;;26.68;78.47;100151.28;5013738;28;20061;-67
2021/08/05 05:59:40;;;;;;;28.02;22.10;;;;;;;26.49;79.23;100145.75;5015403;28;20028;-66
2021/08/05 06:02:06;;;;;;;25.88;23.05;;;;;;;26.42;80.65;100149.53;5015065;28;20100;-66
2021/08/05 06:04:32;;;;;;;26.70;21.88;;;;;;;26.39;79.19;100145.19;5015398;28;20043;-67
2021/08/05 06:06:57;;;;;;;23.90;21.13;;;;;;;26.25;79.25;100137.72;5015083;28;20025;-67
2021/08/05 06:09:23;;;;;;;25.50;21.73;;;;;;;26.39;79.60;100129.31;5015178;28;20064;-67
2021/08/05 06:11:48;;;;;;;27.38;21.67;;;;;;;26.71;78.98;100150.31;5015012;28;20021;-67
2021/08/05 06:14:14;;;;;;;23.35;20.25;;;;;;;26.52;77.56;100081.22;5014927;28;20554;-65
2021/08/05 06:16:41;;;;;;;21.35;17.23;;;;;;;27.05;75.12;100117.31;5014826;28;20018;-67
2021/08/05 06:19:07;;;;;;;18.77;14.75;;;;;;;27.32;72.90;100127.81;5013728;28;20030;-65
2021/08/05 06:21:32;;;;;;;18.77;15.68;;;;;;;27.24;72.69;100110.41;5014553;28;20562;-68
2021/08/05 06:23:57;;;;;;;20.60;15.02;;;;;;;27.40;72.80;100137.22;5014715;28;20026;-70
2021/08/05 06:26:24;;;;;;;16.65;14.70;;;;;;;27.46;72.82;100132.63;5015073;28;20036;-67
2021/08/05 06:28:50;;;;;;;18.17;13.93;;;;;;;27.39;72.40;100111.59;5014659;28;20040;-67
2021/08/05 06:31:18;;;;;;;18.63;15.13;;;;;;;27.65;71.75;100135.41;5013345;28;20420;-67
2021/08/05 06:33:43;;;;;;;129.30;19.25;;;;;;;27.76;71.43;100125.22;5014747;28;20057;-67
2021/08/05 06:36:09;;;;;;;38.63;15.70;;;;;;;27.89;71.15;100128.25;5014409;28;20119;-67
2021/08/05 06:38:35;;;;;;;18.90;13.73;;;;;;;28.00;70.42;100117.19;5014693;28;20476;-71
2021/08/05 06:41:00;;;;;;;20.15;14.82;;;;;;;28.01;73.21;100119.78;5014635;28;20403;-67
2021/08/05 06:43:25;;;;;;;15.20;13.45;;;;;;;27.97;71.63;100123.47;5014356;28;20442;-67
2021/08/05 06:45:51;;;;;;;13.73;11.65;;;;;;;27.97;69.42;100125.28;5014347;28;20026;-66
2021/08/05 06:48:16;;;;;;;15.02;11.35;;;;;;;28.11;69.17;100122.94;5014604;28;20018;-66
2021/08/05 06:50:42;;;;;;;16.52;11.15;;;;;;;28.24;68.31;100126.81;5014076;28;20476;-67
2021/08/05 06:53:08;;;;;;;24.77;11.20;;;;;;;28.32;67.90;100118.53;5013306;28;20374;-67
2021/08/05 06:55:33;;;;;;;11.40;9.90;;;;;;;28.45;67.29;100118.88;5014411;28;20056;-67
2021/08/05 06:57:58;;;;;;;12.10;10.75;;;;;;;28.21;68.28;100126.06;5014138;28;20029;-67
2021/08/05 07:00:24;;;;;;;16.45;10.57;;;;;;;28.36;67.17;100114.81;5014111;28;20120;-67
2021/08/05 07:02:49;;;;;;;13.23;11.02;;;;;;;28.46;67.08;100125.88;5013775;28;20408;-67
2021/08/05 07:05:15;;;;;;;17.08;11.25;;;;;;;28.37;68.56;100111.22;5014048;28;20042;-67
2021/08/05 07:07:40;;;;;;;15.82;10.45;;;;;;;28.61;66.58;100111.06;5013470;28;20030;-67
2021/08/05 07:10:06;;;;;;;17.90;10.38;;;;;;;28.64;65.31;100075.59;5014032;28;20511;-67
2021/08/05 07:12:32;;;;;;;21.08;10.90;;;;;;;28.75;64.54;100083.97;5013832;28;20036;-67
2021/08/05 07:14:58;;;;;;;16.33;11.35;;;;;;;29.00;65.52;100094.31;5013750;28;20054;-67
2021/08/05 07:17:23;;;;;;;13.93;10.73;;;;;;;28.97;65.80;100101.56;5013866;28;20112;-67
2021/08/05 07:19:49;;;;;;;15.32;11.35;;;;;;;28.71;65.61;100099.16;5013755;28;20087;-67
2021/08/05 07:22:15;;;;;;;18.17;11.23;;;;;;;28.63;66.21;100097.75;5013690;28;20029;-67
2021/08/05 07:24:40;;;;;;;16.33;11.30;;;;;;;28.94;67.76;100093.75;5013666;28;20038;-70
2021/08/05 07:27:07;;;;;;;16.05;10.82;;;;;;;28.96;64.68;100081.25;5013642;28;20029;-69
2021/08/05 07:29:33;;;;;;;15.65;11.40;;;;;;;29.09;63.78;100076.25;5013554;28;20029;-70
2021/08/05 07:32:03;;;;;;;14.77;11.48;;;;;;;29.03;65.06;100080.88;5013332;28;20413;-67
2021/08/05 07:34:34;;;;;;;12.13;10.82;;;;;;;29.21;62.11;100092.47;5013374;28;20053;-67
2021/08/05 07:37:00;;;;;;;12.98;11.68;;;;;;;29.11;62.76;100061.94;5013413;28;20061;-67
2021/08/05 07:39:26;;;;;;;17.25;11.90;;;;;;;29.29;63.83;100083.31;5013516;28;20030;-67
2021/08/05 07:41:52;;;;;;;15.57;11.40;;;;;;;29.13;62.06;100062.72;5013399;28;20422;-67
2021/08/05 07:44:17;;;;;;;15.25;10.93;;;;;;;29.41;61.06;100072.09;5012087;28;20057;-67
2021/08/05 07:46:44;;;;;;;15.48;10.40;;;;;;;29.62;60.97;100072.84;5013222;28;20026;-67
2021/08/05 07:49:10;;;;;;;16.40;11.60;;;;;;;29.80;61.19;100080.84;5012999;28;20091;-67
2021/08/05 07:51:36;;;;;;;12.15;10.95;;;;;;;29.85;62.61;100073.50;5012065;28;20034;-67
2021/08/05 07:54:01;;;;;;;13.20;10.93;;;;;;;29.78;61.63;100041.00;5013111;28;20033;-67
2021/08/05 07:56:27;;;;;;;17.38;11.45;;;;;;;30.07;60.64;100073.31;5013170;28;20055;-68
2021/08/05 07:58:52;;;;;;;13.98;11.32;;;;;;;29.90;61.60;100039.56;5012985;28;20510;-67
2021/08/05 08:01:17;;;;;;;12.80;10.68;;;;;;;30.10;60.51;100057.19;5013046;28;20030;-67
2021/08/05 08:03:43;;;;;;;16.30;11.82;;;;;;;30.15;62.39;100057.78;5013239;28;20026;-67
2021/08/05 08:06:08;;;;;;;19.63;10.43;;;;;;;30.41;59.34;100057.41;5013306;28;20026;-67
2021/08/05 08:08:34;;;;;;;14.27;11.65;;;;;;;30.41;61.73;100057.41;5011803;28;20022;-67
2021/08/05 08:11:00;;;;;;;13.60;10.73;;;;;;;30.21;60.85;100058.41;5012959;28;20029;-67
2021/08/05 08:13:27;;;;;;;13.20;11.55;;;;;;;30.20;61.82;100054.06;5012726;28;20022;-66
2021/08/05 08:15:53;;;;;;;12.25;10.90;;;;;;;30.28;61.26;100050.06;5012567;28;20464;-67
2021/08/05 08:18:18;;;;;;;13.38;10.52;;;;;;;30.36;59.68;100036.31;5012264;28;20037;-67
2021/08/05 08:20:45;;;;;;;15.80;10.40;;;;;;;30.31;58.58;100007.28;5012220;28;20037;-67
2021/08/05 08:23:11;;;;;;;13.52;9.90;;;;;;;30.71;56.09;100044.28;5012495;28;20053;-67
2021/08/05 08:25:36;;;;;;;13.75;10.27;;;;;;;30.83;56.29;100037.44;4994255;28;20523;-67
2021/08/05 08:28:02;;;;;;;14.68;9.50;;;;;;;30.97;55.17;100029.50;5012411;28;20022;-67
2021/08/05 08:30:27;;;;;;;14.80;9.13;;;;;;;30.95;54.29;100033.22;4994175;28;20037;-70
2021/08/05 08:32:53;;;;;;;14.55;9.68;;;;;;;31.04;54.03;100019.38;5012374;28;20033;-67
2021/08/05 08:35:18;;;;;;;13.32;9.18;;;;;;;31.28;53.31;100013.66;5012506;28;20558;-66
2021/08/05 08:37:45;;;;;;;13.18;8.90;;;;;;;31.36;53.41;100014.03;5012391;28;20037;-67
2021/08/05 08:40:13;;;;;;;13.23;9.52;;;;;;;31.53;52.22;100020.22;5012510;28;20029;-67
2021/08/05 08:42:40;;;;;;;12.90;9.45;;;;;;;31.61;54.49;100009.97;4978245;28;20112;-67
2021/08/05 08:45:08;;;;;;;14.35;8.80;;;;;;;31.50;52.07;100010.56;5011967;28;20030;-66
2021/08/05 08:47:35;;;;;;;11.93;8.18;;;;;;;31.53;51.88;99998.88;5012042;28;20095;-67
2021/08/05 08:50:01;;;;;;;10.45;7.65;;;;;;;31.66;51.33;100002.56;5012103;28;20026;-67
2021/08/05 08:52:29;;;;;;;12.32;7.70;;;;;;;31.92;50.45;100003.69;5012318;28;20100;-67
2021/08/05 08:54:56;;;;;;;11.18;7.25;;;;;;;32.09;49.87;99985.81;5012161;28;20499;-67
2021/08/05 08:57:26;;;;;;;15.43;8.20;;;;;;;32.16;48.93;99986.28;4977428;28;20048;-67
2021/08/05 08:59:52;;;;;;;16.20;7.20;;;;;;;32.32;47.54;99984.41;5011694;28;20026;-67
2021/08/05 09:02:46;;;;;;;12.85;7.53;;;;;;;32.55;48.27;99961.59;5029710;28;20080;-67
2021/08/05 09:05:12;;;;;;;12.88;7.22;;;;;;;32.70;46.68;99950.88;5029423;28;20129;-69
2021/08/05 09:07:38;;;;;;;14.82;7.90;;;;;;;33.00;46.46;99972.16;5029484;28;20067;-67
2021/08/05 09:10:04;;;;;;;10.80;7.35;;;;;;;32.96;47.44;99970.66;5029450;28;20029;-67
2021/08/05 09:12:31;;;;;;;9.85;7.10;;;;;;;33.06;44.52;99966.41;5029438;28;20470;-69
2021/08/05 09:14:57;;;;;;;14.48;6.88;;;;;;;33.17;44.73;99963.03;5029378;28;20061;-67
2021/08/05 09:17:31;;;;;;;10.75;6.43;;;;;;;33.47;43.69;99969.13;5029290;28;20522;-66
2021/08/05 09:20:03;;;;;;;11.32;6.82;;;;;;;33.62;41.96;99961.88;5029195;28;20029;-68
2021/08/05 09:22:30;;;;;;;11.85;7.00;;;;;;;33.69;43.73;99961.34;5029295;28;20033;-67
2021/08/05 09:24:56;;;;;;;12.57;6.68;;;;;;;33.79;41.47;99942.84;5029347;28;20061;-68
2021/08/05 09:27:32;;;;;;;10.48;6.28;;;;;;;34.03;40.67;99956.41;5029233;28;20069;-68
2021/08/05 09:29:59;;;;;;;19.92;7.25;;;;;;;34.12;41.04;99949.53;5029931;28;20535;-68
2021/08/05 09:32:26;;;;;;;14.30;6.88;;;;;;;34.26;40.34;99942.31;5033050;28;20057;-68
2021/08/05 09:35:05;;;;;;;10.40;6.63;;;;;;;34.24;39.43;99936.25;5015672;28;20022;-68
2021/08/05 09:37:38;;;;;;;15.05;7.18;;;;;;;34.33;39.58;99933.78;5015618;28;20037;-66
2021/08/05 09:40:17;;;;;;;12.23;6.53;;;;;;;34.39;39.29;99927.13;5015747;28;20107;-68
2021/08/05 09:42:55;;;;;;;10.77;6.68;;;;;;;34.22;39.11;99922.97;5015462;28;20033;-66
2021/08/05 09:45:35;;;;;;;11.93;6.25;;;;;;;34.36;37.77;99922.00;5015502;28;20034;-67
2021/08/05 09:48:01;;;;;;;10.13;5.85;;;;;;;34.74;36.14;99906.78;5015510;28;20034;-69
2021/08/05 09:50:26;;;;;;;12.07;5.88;;;;;;;34.89;35.57;99904.81;4997060;28;20099;-67
2021/08/05 09:53:09;;;;;;;13.50;5.80;;;;;;;35.13;34.35;99902.09;5015478;28;20490;-68
2021/08/05 09:55:35;;;;;;;10.30;5.45;;;;;;;35.30;33.90;99904.41;5015334;28;20032;-68
2021/08/05 09:58:02;;;;;;;9.82;5.75;;;;;;;35.21;34.21;99905.06;5015163;28;20025;-68
2021/08/05 10:00:40;;;;;;;14.32;6.55;;;;;;;35.36;34.50;99896.84;5015253;28;20476;-67
2021/08/05 10:03:09;;;;;;;11.38;6.00;;;;;;;35.47;33.33;99888.84;5015323;28;20404;-68
2021/08/05 10:05:35;;;;;;;11.50;5.75;;;;;;;35.40;33.73;99882.25;5013728;28;20144;-68
2021/08/05 10:08:01;;;;;;;10.48;5.93;;;;;;;35.56;33.93;99880.06;5014994;28;20041;-68
2021/08/05 10:10:46;;;;;;;14.85;6.53;;;;;;;35.67;33.48;99884.63;5014851;28;20033;-68
2021/08/05 10:13:27;;;;;;;13.73;5.82;;;;;;;35.82;33.22;99877.19;5015190;28;20042;-68
2021/08/05 10:15:52;;;;;;;12.75;6.57;;;;;;;35.99;33.11;99866.97;5014922;28;20029;-68
2021/08/05 10:18:18;;;;;;;14.32;6.22;;;;;;;36.21;32.65;99863.41;5014848;28;20038;-70
2021/08/05 10:20:44;;;;;;;10.73;6.20;;;;;;;36.40;32.76;99852.03;5014954;28;20021;-68
2021/08/05 10:23:10;;;;;;;18.30;6.57;;;;;;;36.54;31.92;99841.00;5014560;28;20033;-68
2021/08/05 10:25:37;;;;;;;10.77;5.68;;;;;;;36.61;31.88;99835.13;5015316;28;20026;-68
2021/08/05 10:28:03;;;;;;;11.77;5.75;;;;;;;36.80;32.16;99839.81;5015077;28;20113;-68
2021/08/05 10:30:30;;;;;;;15.50;6.07;;;;;;;36.52;32.35;99812.56;5014728;28;20030;-68
2021/08/05 10:32:55;;;;;;;16.42;6.22;;;;;;;36.95;33.17;99835.00;5014839;28;20558;-68
2021/08/05 10:35:23;;;;;;;13.32;6.65;;;;;;;37.07;32.20;99836.66;5014546;28;20034;-68
2021/08/05 10:37:49;;;;;;;12.15;6.03;;;;;;;37.16;32.07;99827.84;5014491;28;20029;-71
2021/08/05 10:40:15;;;;;;;10.57;6.45;;;;;;;37.00;31.83;99796.00;5014649;28;20026;-67
2021/08/05 10:42:45;;;;;;;11.48;5.70;;;;;;;37.32;31.64;99818.44;5013572;28;20029;-71
2021/08/05 10:45:13;;;;;;;17.15;6.68;;;;;;;37.23;31.32;99807.44;5014363;28;20032;-68
2021/08/05 10:47:41;;;;;;;9.25;5.85;;;;;;;37.26;31.43;99800.09;5014212;28;20052;-68
2021/08/05 10:50:15;;;;;;;14.20;6.10;;;;;;;37.39;31.12;99800.78;5014414;28;20476;-68
2021/08/05 10:52:44;;;;;;;12.63;6.40;;;;;;;37.32;31.06;99796.88;5014566;28;20103;-68
2021/08/05 10:55:16;;;;;;;11.55;5.85;;;;;;;37.40;31.18;99778.28;5014328;28;20030;-68
2021/08/05 10:57:42;;;;;;;9.82;5.82;;;;;;;37.41;30.54;99766.50;5014247;28;20033;-68
2021/08/05 11:00:14;;;;;;;10.30;6.28;;;;;;;37.65;30.39;99776.97;5014114;28;20026;-68
2021/08/05 11:02:49;;;;;;;10.07;5.93;;;;;;;37.82;30.30;99766.56;5014044;28;20411;-67
2021/08/05 11:05:23;;;;;;;10.25;6.05;;;;;;;37.78;30.45;99763.25;5014246;28;20042;-67
2021/08/05 11:07:49;;;;;;;11.90;5.90;;;;;;;37.84;30.65;99757.34;5014010;28;20057;-67
2021/08/05 11:10:15;;;;;;;10.63;5.05;;;;;;;37.91;29.20;99748.72;5013890;28;20047;-67
2021/08/05 11:12:48;;;;;;;12.35;6.40;;;;;;;37.95;28.60;99750.16;5013705;28;20029;-68